BCDO2: Kiamichi River, Big Cedar

Data processed at Fri Feb 23 2018 21:32


All information presented herein is the property of the government of the United States of America and may be revised or deleted at any time without prior notice.
Dissemination of this information without the expressed written consent of the Public Affairs Office, Tulsa District U.S. Army Corps of Engineers is strictly prohibited.
These data are gathered electronically and, as presented, have not undergone any form of quality control. These data are not guaranteed to be valid or correct.
Go to home page.
Go to station list.

Downstream station:


Previous Day
Next Day
Current Day
    
SHEF ID:       BCDO2     Kiamichi River near Big Cedar, O
STATION TYPE:  

               PRECIP     STAGE  RIV-FLOW  WTR-TEMP  BAT-LOAD
                   in        ft       cfs         F      volt
              Ccp-Rev   Ccp-Rev   Ccp-Rev   Ccp-Rev   Ccp-Rev
(US/Central)
02/23 00:00      ----      7.13      1035     49.17     12.49
02/23 01:00      ----      7.00       974     49.24     12.49
02/23 02:00      ----      6.87       915     49.30     12.49
02/23 03:00      ----      6.75       862     49.35     12.49
02/23 04:00      ----      6.62       807     49.37     12.41
02/23 05:00      ----      6.50       757     49.37     12.41
02/23 06:00      ----      6.39       712     49.39     12.41
02/23 07:00      ----      6.30       679     49.37     12.41
02/23 08:00      ----      6.21       647     49.39     12.41
02/23 09:00      ----      6.11       612     49.37     12.41
02/23 10:00      ----      6.10       608     49.39     12.49
02/23 11:00      ----      6.11       612     49.46     12.57
02/23 12:00      ----      6.18       636     49.64     12.57
02/23 13:00      ----      6.29       675     49.73     12.57
02/23 14:00      ----      6.56       782     49.87     12.49
02/23 15:00      ----      7.26      1098     50.04     12.49
02/23 16:00      ----      8.47      1785     50.27     12.49
02/23 17:00      ----      9.54      2556     50.45     12.49
02/23 18:00      ----      9.83      2789     50.63     12.49
02/23 19:00      ----      9.58      2588     50.72     12.49
02/23 20:00      ----      9.04      2179     50.76     12.49
02/23 21:00      ----      ----      ----      ----      ----
02/23 22:00      ----      ----      ----      ----      ----
02/23 23:00      ----      ----      ----      ----      ----